Time;durP1;ratioP1;P1;durP2;ratioP2;P2;SDS_P1;SDS_P2;PMS_P1;PMS_P2;Temp;Humidity;BMP_temperature;BMP_pressure;BME280_temperature;BME280_humidity;BME280_pressure;Samples;Min_cycle;Max_cycle;Signal;HPM_P1;HPM_P2
2022/10/13 00:04:36;;;;;;;5.13;3.60;;;18.60;60.70;;;;;;21085056;28;20472;-64
2022/10/13 00:14:38;;;;;;;7.30;3.70;;;18.40;61.40;;;;;;21081411;28;20083;-58
2022/10/13 00:24:40;;;;;;;5.00;3.60;;;18.30;61.70;;;;;;21080034;28;20055;-56
2022/10/13 00:34:41;;;;;;;4.60;3.45;;;18.20;62.60;;;;;;21080036;28;20126;-58
2022/10/13 00:45:20;;;;;;;6.35;3.90;;;18.10;63.10;;;;;;21079364;28;20451;-56
2022/10/13 00:55:25;;;;;;;5.13;3.72;;;18.10;63.10;;;;;;21064018;28;20055;-63
2022/10/13 01:05:27;;;;;;;6.88;4.43;;;18.00;63.70;;;;;;21061070;28;20058;-64
2022/10/13 01:15:33;;;;;;;6.55;3.95;;;17.90;64.00;;;;;;21077981;28;20495;-56
2022/10/13 01:26:12;;;;;;;4.60;3.85;;;17.90;63.90;;;;;;21078081;28;20056;-57
2022/10/13 01:36:23;;;;;;;5.43;3.78;;;18.00;63.60;;;;;;20662521;28;20050;-57
2022/10/13 01:46:30;;;;;;;7.22;3.75;;;17.90;64.00;;;;;;20672165;28;20054;-57
2022/10/13 01:56:36;;;;;;;7.00;4.22;;;17.90;64.20;;;;;;20672166;28;20056;-57
2022/10/13 02:07:14;;;;;;;13.60;8.10;;;17.70;64.70;;;;;;20773993;28;20056;-55
2022/10/13 02:17:18;;;;;;;12.85;9.00;;;17.90;65.40;;;;;;21091340;28;20052;-55
2022/10/13 02:27:25;;;;;;;12.45;7.60;;;17.80;66.20;;;;;;21090708;28;20051;-57
2022/10/13 02:37:32;;;;;;;10.10;6.20;;;17.70;66.50;;;;;;21090284;28;20044;-57
2022/10/13 02:47:35;;;;;;;7.15;4.60;;;17.60;66.60;;;;;;21087398;28;20052;-57
2022/10/13 02:57:37;;;;;;;8.55;5.35;;;17.40;66.20;;;;;;21088462;28;20488;-56
2022/10/13 03:07:41;;;;;;;8.63;4.97;;;17.20;66.60;;;;;;21087882;28;20043;-56
2022/10/13 03:17:44;;;;;;;5.90;4.27;;;17.20;66.60;;;;;;21087486;28;20056;-59
2022/10/13 03:27:46;;;;;;;5.30;3.97;;;16.90;66.70;;;;;;21086299;28;20047;-57
2022/10/13 03:37:47;;;;;;;6.43;3.70;;;16.80;66.50;;;;;;21067860;28;20055;-58
2022/10/13 03:47:49;;;;;;;5.97;3.35;;;16.60;67.00;;;;;;21083808;28;20058;-55
2022/10/13 03:57:53;;;;;;;6.23;3.70;;;16.50;67.20;;;;;;21084228;28;20051;-57
2022/10/13 04:07:55;;;;;;;8.15;3.60;;;16.30;67.80;;;;;;21082370;28;20065;-63
2022/10/13 04:17:57;;;;;;;5.13;3.05;;;16.20;67.60;;;;;;21081308;28;20055;-63
2022/10/13 04:27:59;;;;;;;5.43;3.85;;;16.20;67.40;;;;;;21080783;28;20052;-64
2022/10/13 04:38:01;;;;;;;5.50;3.90;;;16.20;67.40;;;;;;21061988;28;20181;-63
2022/10/13 04:48:03;;;;;;;6.93;3.67;;;16.10;67.60;;;;;;21079513;28;20052;-64
2022/10/13 04:58:06;;;;;;;6.55;4.07;;;16.10;67.60;;;;;;21078884;28;20059;-63
2022/10/13 05:08:08;;;;;;;6.25;4.20;;;16.10;67.60;;;;;;21077939;28;20044;-57
2022/10/13 05:18:09;;;;;;;6.90;4.05;;;16.00;68.00;;;;;;21078133;28;20048;-57
2022/10/13 05:28:12;;;;;;;7.75;4.00;;;16.00;68.10;;;;;;21078256;28;20154;-56
2022/10/13 05:38:13;;;;;;;8.43;5.20;;;16.10;67.90;;;;;;21077707;28;20055;-58
2022/10/13 05:48:15;;;;;;;6.15;4.07;;;16.00;68.10;;;;;;21058044;28;20043;-57
2022/10/13 05:58:17;;;;;;;9.13;4.93;;;16.00;68.20;;;;;;21077512;28;20454;-57
2022/10/13 06:08:19;;;;;;;12.10;5.07;;;16.00;68.20;;;;;;21076144;28;20055;-59
2022/10/13 06:18:21;;;;;;;10.18;4.70;;;16.00;68.20;;;;;;21075544;28;20135;-57
2022/10/13 06:28:22;;;;;;;7.43;4.20;;;15.90;68.50;;;;;;21088771;28;20052;-57
2022/10/13 06:38:24;;;;;;;11.25;4.68;;;15.70;68.60;;;;;;21089377;28;20047;-57
2022/10/13 06:48:27;;;;;;;6.68;4.20;;;15.70;68.70;;;;;;21088791;28;20060;-57
2022/10/13 06:58:29;;;;;;;10.38;4.32;;;15.60;69.00;;;;;;21087725;28;20093;-57
2022/10/13 07:08:31;;;;;;;8.82;4.63;;;15.70;68.50;;;;;;21087159;28;20072;-61
2022/10/13 07:18:33;;;;;;;8.35;4.55;;;15.70;68.10;;;;;;21086263;28;20051;-59
2022/10/13 07:28:35;;;;;;;7.22;4.47;;;15.80;67.80;;;;;;21087234;28;20044;-58
2022/10/13 07:38:38;;;;;;;12.88;6.15;;;16.00;67.10;;;;;;21084239;28;20497;-58
2022/10/13 07:48:40;;;;;;;13.50;6.90;;;16.30;66.70;;;;;;21084064;28;20051;-57
2022/10/13 07:58:45;;;;;;;13.90;7.38;;;16.50;65.80;;;;;;21083041;28;20070;-59
2022/10/13 08:08:47;;;;;;;17.98;8.90;;;16.80;65.20;;;;;;21083355;28;20120;-61
2022/10/13 08:18:49;;;;;;;14.85;8.40;;;17.10;64.30;;;;;;21082281;28;20050;-57
2022/10/13 08:28:51;;;;;;;15.05;9.23;;;17.30;63.60;;;;;;21080631;28;20064;-59
2022/10/13 08:38:53;;;;;;;14.90;8.77;;;17.70;62.90;;;;;;21062937;28;20047;-58
2022/10/13 08:48:57;;;;;;;12.27;8.00;;;18.00;61.30;;;;;;21079164;28;20058;-59
2022/10/13 08:59:00;;;;;;;19.63;9.68;;;18.20;60.40;;;;;;21079345;28;20048;-62
2022/10/13 09:09:07;;;;;;;16.27;9.67;;;18.40;60.00;;;;;;21137244;28;20427;-64
2022/10/13 09:19:26;;;;;;;16.20;8.73;;;18.70;59.80;;;;;;21162607;28;20091;-57
2022/10/13 09:29:28;;;;;;;16.67;9.30;;;18.90;59.10;;;;;;21164812;28;20039;-58
2022/10/13 09:39:31;;;;;;;13.50;8.02;;;19.20;58.10;;;;;;21150618;28;20484;-57
2022/10/13 09:50:14;;;;;;;16.95;8.57;;;19.40;57.40;;;;;;21237959;27;20369;-57
2022/10/13 10:00:20;;;;;;;14.55;8.82;;;19.70;56.60;;;;;;21218046;28;20074;-58
2022/10/13 10:10:34;;;;;;;8.05;5.03;;;19.80;56.10;;;;;;21235024;28;20395;-61
2022/10/13 10:21:03;;;;;;;15.48;6.40;;;20.30;56.10;;;;;;21234417;28;20081;-62
2022/10/13 10:31:19;;;;;;;12.20;6.28;;;21.20;52.70;;;;;;21233465;28;20083;-67
2022/10/13 10:41:39;;;;;;;15.60;7.82;;;21.20;52.30;;;;;;21233300;28;20055;-65
2022/10/13 10:51:41;;;;;;;10.63;4.93;;;21.30;52.20;;;;;;21230058;28;20051;-68
2022/10/13 11:01:56;;;;;;;13.32;5.38;;;21.60;51.60;;;;;;21173740;28;20086;-64
2022/10/13 11:11:57;;;;;;;11.15;6.00;;;21.70;51.60;;;;;;21174063;28;20054;-67
2022/10/13 11:21:59;;;;;;;10.38;4.82;;;21.90;51.00;;;;;;21172001;28;20051;-69
2022/10/13 11:32:00;;;;;;;10.57;4.57;;;22.00;50.30;;;;;;21172724;28;20044;-66
2022/10/13 11:42:11;;;;;;;8.27;4.50;;;22.00;49.90;;;;;;21171233;28;20490;-59
2022/10/13 11:52:37;;;;;;;8.30;5.22;;;22.20;48.40;;;;;;21171110;28;20047;-65
2022/10/13 12:02:50;;;;;;;8.60;4.97;;;22.20;48.30;;;;;;21171566;28;20048;-60
2022/10/13 12:12:52;;;;;;;8.20;4.57;;;22.50;47.70;;;;;;21168500;28;20465;-58
2022/10/13 12:22:55;;;;;;;7.40;4.18;;;22.70;46.40;;;;;;21168183;28;20047;-59
2022/10/13 12:32:58;;;;;;;8.93;4.87;;;22.90;46.20;;;;;;21167641;28;20067;-68
2022/10/13 12:42:59;;;;;;;6.43;4.53;;;23.00;45.90;;;;;;21166714;28;20503;-60
2022/10/13 12:53:20;;;;;;;10.48;5.07;;;23.10;44.60;;;;;;21165796;28;20163;-61
2022/10/13 13:03:27;;;;;;;9.15;4.38;;;23.20;44.60;;;;;;21166558;28;20461;-67
2022/10/13 13:13:29;;;;;;;7.80;3.95;;;23.40;44.40;;;;;;21166532;28;20058;-67
2022/10/13 13:23:33;;;;;;;9.37;4.93;;;23.40;43.30;;;;;;21164197;28;20086;-68
2022/10/13 13:33:34;;;;;;;4.55;3.17;;;23.60;43.00;;;;;;21163496;28;20040;-57
2022/10/13 13:43:37;;;;;;;4.83;2.70;;;23.70;41.80;;;;;;21163307;28;20055;-65
2022/10/13 13:53:39;;;;;;;9.15;4.35;;;24.00;40.80;;;;;;21162850;28;20053;-59
2022/10/13 14:03:41;;;;;;;6.30;2.77;;;24.10;41.30;;;;;;21162727;28;20048;-57
2022/10/13 14:13:42;;;;;;;5.78;3.22;;;24.10;40.70;;;;;;21161925;28;20082;-58
2022/10/13 14:23:45;;;;;;;9.93;3.72;;;24.20;40.60;;;;;;21162145;28;20055;-58
2022/10/13 14:33:47;;;;;;;7.50;3.00;;;24.30;40.00;;;;;;21172708;28;20044;-58
2022/10/13 14:43:54;;;;;;;4.22;2.22;;;24.40;39.50;;;;;;21176078;28;20059;-60
2022/10/13 14:53:55;;;;;;;6.00;3.05;;;24.40;40.40;;;;;;21176217;28;20416;-58
2022/10/13 15:03:57;;;;;;;3.28;2.20;;;24.60;39.90;;;;;;21156406;28;20094;-59
2022/10/13 15:13:58;;;;;;;4.60;2.03;;;24.50;39.70;;;;;;21155840;28;20136;-56
2022/10/13 15:24:00;;;;;;;3.47;2.72;;;24.60;39.50;;;;;;21172959;28;20074;-58
2022/10/13 15:34:02;;;;;;;3.65;2.75;;;24.50;39.80;;;;;;21173601;28;20396;-60
2022/10/13 15:44:04;;;;;;;5.53;2.43;;;24.40;39.90;;;;;;21171077;28;20091;-60
2022/10/13 15:54:05;;;;;;;3.80;2.38;;;24.40;40.10;;;;;;21170684;28;20055;-59
2022/10/13 16:04:07;;;;;;;5.13;2.20;;;24.40;40.00;;;;;;21169319;28;20048;-62
2022/10/13 16:14:08;;;;;;;3.88;2.05;;;24.30;40.30;;;;;;21170199;28;20054;-59
2022/10/13 16:24:10;;;;;;;4.57;2.50;;;24.20;40.60;;;;;;21135017;28;20404;-62
2022/10/13 16:34:12;;;;;;;6.07;3.30;;;24.10;41.10;;;;;;21163127;27;20051;-61
2022/10/13 16:44:14;;;;;;;12.73;5.63;;;24.10;42.70;;;;;;21138952;28;20059;-61
2022/10/13 16:54:15;;;;;;;13.93;8.20;;;24.00;46.90;;;;;;21164554;27;20468;-62
2022/10/13 17:04:17;;;;;;;9.00;4.70;;;24.00;46.10;;;;;;21135755;28;20047;-59
2022/10/13 17:14:18;;;;;;;9.57;4.32;;;24.00;48.90;;;;;;21155707;27;20058;-60
2022/10/13 17:24:20;;;;;;;18.83;9.52;;;23.90;48.40;;;;;;21180709;27;20055;-59
2022/10/13 17:34:23;;;;;;;11.35;5.95;;;23.90;48.80;;;;;;21136429;28;20128;-63
2022/10/13 17:44:25;;;;;;;8.50;4.87;;;23.80;46.40;;;;;;21121498;28;20048;-60
2022/10/13 17:54:26;;;;;;;11.38;4.95;;;23.80;46.90;;;;;;21132789;28;20135;-64
2022/10/13 18:04:28;;;;;;;11.85;5.57;;;23.70;45.60;;;;;;21143143;28;20135;-59
2022/10/13 18:14:30;;;;;;;25.60;17.83;;;23.70;45.70;;;;;;21175438;27;20403;-59
2022/10/13 18:24:31;;;;;;;12.48;8.10;;;23.60;45.70;;;;;;21198630;27;20051;-59
2022/10/13 18:34:33;;;;;;;7.30;5.05;;;23.60;45.60;;;;;;21176589;27;20040;-62
2022/10/13 18:44:35;;;;;;;14.45;6.18;;;23.40;45.40;;;;;;21125992;27;20052;-65
2022/10/13 18:54:36;;;;;;;14.35;7.00;;;23.50;46.70;;;;;;21089566;28;20123;-64
2022/10/13 19:04:38;;;;;;;10.05;4.43;;;23.20;45.20;;;;;;21089548;28;20151;-58
2022/10/13 19:14:39;;;;;;;7.75;4.30;;;22.80;44.90;;;;;;21088635;28;20044;-60
2022/10/13 19:24:41;;;;;;;7.97;4.05;;;22.60;44.70;;;;;;21088281;28;20086;-60
2022/10/13 19:34:42;;;;;;;7.30;4.05;;;22.40;45.40;;;;;;21068433;28;20473;-58
2022/10/13 19:44:44;;;;;;;9.20;5.93;;;22.30;45.00;;;;;;21085783;28;20048;-59
2022/10/13 19:54:46;;;;;;;8.88;5.03;;;22.20;45.70;;;;;;21086499;28;20071;-58
2022/10/13 20:04:47;;;;;;;9.98;4.10;;;22.10;45.60;;;;;;21085292;28;20564;-60
2022/10/13 20:14:49;;;;;;;6.43;4.07;;;22.00;45.70;;;;;;21084218;28;20052;-61
2022/10/13 20:24:50;;;;;;;7.72;4.10;;;21.90;45.80;;;;;;21083079;28;20400;-58
2022/10/13 20:34:52;;;;;;;6.45;3.83;;;21.90;46.00;;;;;;21084388;28;20442;-60
2022/10/13 20:44:54;;;;;;;7.38;4.28;;;21.70;46.10;;;;;;21081662;28;20095;-58
2022/10/13 20:54:56;;;;;;;10.13;6.10;;;21.70;46.60;;;;;;21064590;28;20168;-59
2022/10/13 21:04:57;;;;;;;11.10;5.40;;;21.50;47.20;;;;;;21081458;28;20048;-60
2022/10/13 21:14:59;;;;;;;6.35;3.55;;;21.20;48.40;;;;;;21081852;28;20052;-63
2022/10/13 21:25:00;;;;;;;10.38;3.95;;;21.00;48.40;;;;;;21080542;28;20091;-58
2022/10/13 21:35:02;;;;;;;7.20;3.58;;;20.90;48.80;;;;;;21080192;28;20052;-57
2022/10/13 21:45:04;;;;;;;11.82;6.60;;;20.70;49.20;;;;;;21078942;28;20051;-60
2022/10/13 21:55:06;;;;;;;6.95;4.13;;;20.70;49.30;;;;;;21079163;28;20055;-57
2022/10/13 22:05:08;;;;;;;8.23;4.97;;;20.50;49.80;;;;;;21079929;28;20083;-61
2022/10/13 22:15:10;;;;;;;6.90;3.83;;;20.40;50.30;;;;;;21078280;28;20064;-60
2022/10/13 22:25:12;;;;;;;9.95;4.50;;;20.20;51.10;;;;;;21077917;28;20095;-59
2022/10/13 22:35:14;;;;;;;7.00;3.67;;;20.00;52.10;;;;;;21077078;28;20048;-59
2022/10/13 22:45:15;;;;;;;8.15;3.55;;;19.80;53.00;;;;;;21076862;28;20051;-59
2022/10/13 22:55:17;;;;;;;7.70;4.07;;;19.60;53.90;;;;;;21087754;28;20048;-58
2022/10/13 23:05:18;;;;;;;9.25;4.18;;;19.40;54.50;;;;;;21090970;28;20051;-60
2022/10/13 23:15:20;;;;;;;7.63;3.97;;;19.40;54.20;;;;;;21090644;28;20511;-58
2022/10/13 23:25:22;;;;;;;7.68;3.28;;;19.30;55.10;;;;;;21070944;28;20056;-60
2022/10/13 23:35:23;;;;;;;6.88;3.50;;;19.10;55.70;;;;;;21088149;28;20070;-60
2022/10/13 23:45:25;;;;;;;5.90;3.55;;;19.00;56.10;;;;;;21069672;28;20051;-60
2022/10/13 23:55:27;;;;;;;8.32;4.35;;;18.90;56.50;;;;;;21086606;28;20044;-58
